sensor_id;sensor_type;location;lat;lon;timestamp;P1;durP1;ratioP1;P2;durP2;ratioP2
5831;SDS011;50943;51.448;7.646;2024-01-30T00:00:34;12.63;;;6.60;;
5831;SDS011;50943;51.448;7.646;2024-01-30T00:03:02;13.20;;;7.77;;
5831;SDS011;50943;51.448;7.646;2024-01-30T00:05:29;14.80;;;8.10;;
5831;SDS011;50943;51.448;7.646;2024-01-30T00:07:55;13.53;;;7.77;;
5831;SDS011;50943;51.448;7.646;2024-01-30T00:10:22;14.97;;;7.57;;
5831;SDS011;50943;51.448;7.646;2024-01-30T00:12:48;12.00;;;7.53;;
5831;SDS011;50943;51.448;7.646;2024-01-30T00:15:15;12.07;;;7.53;;
5831;SDS011;50943;51.448;7.646;2024-01-30T00:17:41;13.13;;;7.57;;
5831;SDS011;50943;51.448;7.646;2024-01-30T00:20:09;13.17;;;7.80;;
5831;SDS011;50943;51.448;7.646;2024-01-30T00:22:36;16.43;;;7.83;;
5831;SDS011;50943;51.448;7.646;2024-01-30T00:25:03;13.80;;;9.23;;
5831;SDS011;50943;51.448;7.646;2024-01-30T00:27:30;10.70;;;6.87;;
5831;SDS011;50943;51.448;7.646;2024-01-30T00:29:56;14.50;;;7.97;;
5831;SDS011;50943;51.448;7.646;2024-01-30T00:32:23;14.80;;;8.17;;
5831;SDS011;50943;51.448;7.646;2024-01-30T00:34:49;12.97;;;8.10;;
5831;SDS011;50943;51.448;7.646;2024-01-30T00:37:17;13.33;;;7.23;;
5831;SDS011;50943;51.448;7.646;2024-01-30T00:39:44;15.33;;;7.77;;
5831;SDS011;50943;51.448;7.646;2024-01-30T00:42:10;15.80;;;8.80;;
5831;SDS011;50943;51.448;7.646;2024-01-30T00:44:37;17.40;;;8.40;;
5831;SDS011;50943;51.448;7.646;2024-01-30T00:47:04;16.07;;;8.77;;
5831;SDS011;50943;51.448;7.646;2024-01-30T00:49:31;17.90;;;7.70;;
5831;SDS011;50943;51.448;7.646;2024-01-30T00:51:57;17.07;;;9.30;;
5831;SDS011;50943;51.448;7.646;2024-01-30T00:54:25;16.13;;;8.67;;
5831;SDS011;50943;51.448;7.646;2024-01-30T00:56:51;22.60;;;10.07;;
5831;SDS011;50943;51.448;7.646;2024-01-30T00:59:18;21.83;;;9.70;;
5831;SDS011;50943;51.448;7.646;2024-01-30T01:01:44;24.90;;;13.57;;
5831;SDS011;50943;51.448;7.646;2024-01-30T01:04:11;18.03;;;9.30;;
5831;SDS011;50943;51.448;7.646;2024-01-30T01:06:37;24.20;;;11.60;;
5831;SDS011;50943;51.448;7.646;2024-01-30T01:09:04;20.47;;;10.33;;
5831;SDS011;50943;51.448;7.646;2024-01-30T01:11:32;17.77;;;10.47;;
5831;SDS011;50943;51.448;7.646;2024-01-30T01:13:58;19.97;;;10.37;;
5831;SDS011;50943;51.448;7.646;2024-01-30T01:16:25;20.80;;;10.10;;
5831;SDS011;50943;51.448;7.646;2024-01-30T01:18:51;15.87;;;8.97;;
5831;SDS011;50943;51.448;7.646;2024-01-30T01:21:17;17.10;;;9.80;;
5831;SDS011;50943;51.448;7.646;2024-01-30T01:23:44;15.23;;;8.57;;
5831;SDS011;50943;51.448;7.646;2024-01-30T01:26:10;14.33;;;8.13;;
5831;SDS011;50943;51.448;7.646;2024-01-30T01:28:40;20.37;;;7.90;;
5831;SDS011;50943;51.448;7.646;2024-01-30T01:31:06;15.70;;;9.10;;
5831;SDS011;50943;51.448;7.646;2024-01-30T01:33:33;14.43;;;7.80;;
5831;SDS011;50943;51.448;7.646;2024-01-30T01:36:02;14.67;;;8.50;;
5831;SDS011;50943;51.448;7.646;2024-01-30T01:38:28;17.10;;;8.77;;
5831;SDS011;50943;51.448;7.646;2024-01-30T01:40:55;15.10;;;7.83;;
5831;SDS011;50943;51.448;7.646;2024-01-30T01:43:21;18.13;;;9.37;;
5831;SDS011;50943;51.448;7.646;2024-01-30T01:45:49;13.83;;;8.47;;
5831;SDS011;50943;51.448;7.646;2024-01-30T01:48:16;15.00;;;8.70;;
5831;SDS011;50943;51.448;7.646;2024-01-30T01:50:42;16.60;;;8.50;;
5831;SDS011;50943;51.448;7.646;2024-01-30T01:53:09;19.90;;;9.40;;
5831;SDS011;50943;51.448;7.646;2024-01-30T01:55:36;15.03;;;8.77;;
5831;SDS011;50943;51.448;7.646;2024-01-30T01:58:03;16.90;;;8.93;;
5831;SDS011;50943;51.448;7.646;2024-01-30T02:00:30;12.53;;;7.80;;
5831;SDS011;50943;51.448;7.646;2024-01-30T02:06:35;14.77;;;8.23;;
5831;SDS011;50943;51.448;7.646;2024-01-30T02:09:01;15.23;;;7.77;;
5831;SDS011;50943;51.448;7.646;2024-01-30T02:11:29;14.50;;;8.07;;
5831;SDS011;50943;51.448;7.646;2024-01-30T02:13:56;15.63;;;8.00;;
5831;SDS011;50943;51.448;7.646;2024-01-30T02:16:22;14.53;;;8.03;;
5831;SDS011;50943;51.448;7.646;2024-01-30T02:18:49;14.50;;;7.73;;
5831;SDS011;50943;51.448;7.646;2024-01-30T02:21:17;13.30;;;8.63;;
5831;SDS011;50943;51.448;7.646;2024-01-30T02:23:44;27.53;;;8.30;;
5831;SDS011;50943;51.448;7.646;2024-01-30T02:29:07;11.33;;;7.07;;
5831;SDS011;50943;51.448;7.646;2024-01-30T02:31:33;16.50;;;8.40;;
5831;SDS011;50943;51.448;7.646;2024-01-30T02:34:00;14.97;;;9.07;;
5831;SDS011;50943;51.448;7.646;2024-01-30T02:36:30;15.87;;;8.07;;
5831;SDS011;50943;51.448;7.646;2024-01-30T02:38:57;13.30;;;7.70;;
5831;SDS011;50943;51.448;7.646;2024-01-30T02:41:23;15.40;;;8.17;;
5831;SDS011;50943;51.448;7.646;2024-01-30T02:43:50;19.00;;;9.60;;
5831;SDS011;50943;51.448;7.646;2024-01-30T02:46:16;16.57;;;7.37;;
5831;SDS011;50943;51.448;7.646;2024-01-30T02:48:42;13.90;;;8.10;;
5831;SDS011;50943;51.448;7.646;2024-01-30T02:51:09;13.83;;;7.80;;
5831;SDS011;50943;51.448;7.646;2024-01-30T02:53:37;18.33;;;8.97;;
5831;SDS011;50943;51.448;7.646;2024-01-30T02:56:04;16.27;;;9.03;;
5831;SDS011;50943;51.448;7.646;2024-01-30T02:58:31;13.60;;;7.67;;
5831;SDS011;50943;51.448;7.646;2024-01-30T03:00:57;12.27;;;7.40;;
5831;SDS011;50943;51.448;7.646;2024-01-30T03:03:23;15.33;;;8.00;;
5831;SDS011;50943;51.448;7.646;2024-01-30T03:05:50;18.57;;;8.23;;
5831;SDS011;50943;51.448;7.646;2024-01-30T03:08:16;16.90;;;7.90;;
5831;SDS011;50943;51.448;7.646;2024-01-30T03:10:44;15.20;;;8.17;;
5831;SDS011;50943;51.448;7.646;2024-01-30T03:13:11;15.77;;;8.87;;
5831;SDS011;50943;51.448;7.646;2024-01-30T03:15:37;14.97;;;8.43;;
5831;SDS011;50943;51.448;7.646;2024-01-30T03:18:04;17.60;;;8.50;;
5831;SDS011;50943;51.448;7.646;2024-01-30T03:20:31;13.47;;;7.90;;
5831;SDS011;50943;51.448;7.646;2024-01-30T03:22:59;12.90;;;8.00;;
5831;SDS011;50943;51.448;7.646;2024-01-30T03:25:26;18.87;;;8.00;;
5831;SDS011;50943;51.448;7.646;2024-01-30T03:27:54;16.77;;;8.73;;
5831;SDS011;50943;51.448;7.646;2024-01-30T03:30:20;14.67;;;7.70;;
5831;SDS011;50943;51.448;7.646;2024-01-30T03:32:47;17.53;;;7.90;;
5831;SDS011;50943;51.448;7.646;2024-01-30T03:35:14;14.33;;;7.83;;
5831;SDS011;50943;51.448;7.646;2024-01-30T03:37:40;14.93;;;7.93;;
5831;SDS011;50943;51.448;7.646;2024-01-30T03:40:07;14.57;;;7.23;;
5831;SDS011;50943;51.448;7.646;2024-01-30T03:42:34;13.87;;;7.83;;
5831;SDS011;50943;51.448;7.646;2024-01-30T03:45:02;14.33;;;8.37;;
5831;SDS011;50943;51.448;7.646;2024-01-30T03:47:30;14.20;;;8.03;;
5831;SDS011;50943;51.448;7.646;2024-01-30T03:49:56;14.07;;;7.90;;
5831;SDS011;50943;51.448;7.646;2024-01-30T03:52:23;18.20;;;8.10;;
5831;SDS011;50943;51.448;7.646;2024-01-30T03:54:49;16.93;;;8.13;;
5831;SDS011;50943;51.448;7.646;2024-01-30T03:57:16;15.07;;;7.60;;
5831;SDS011;50943;51.448;7.646;2024-01-30T03:59:42;15.87;;;8.70;;
5831;SDS011;50943;51.448;7.646;2024-01-30T04:02:11;14.30;;;7.90;;
5831;SDS011;50943;51.448;7.646;2024-01-30T04:04:37;17.80;;;8.07;;
5831;SDS011;50943;51.448;7.646;2024-01-30T04:07:04;16.87;;;9.17;;
5831;SDS011;50943;51.448;7.646;2024-01-30T04:09:30;15.03;;;8.90;;
5831;SDS011;50943;51.448;7.646;2024-01-30T04:11:57;14.80;;;9.33;;
5831;SDS011;50943;51.448;7.646;2024-01-30T04:14:24;15.13;;;8.90;;
5831;SDS011;50943;51.448;7.646;2024-01-30T04:16:51;16.80;;;9.37;;
5831;SDS011;50943;51.448;7.646;2024-01-30T04:19:18;21.40;;;8.83;;
5831;SDS011;50943;51.448;7.646;2024-01-30T04:21:45;24.13;;;9.90;;
5831;SDS011;50943;51.448;7.646;2024-01-30T04:24:11;17.13;;;9.00;;
5831;SDS011;50943;51.448;7.646;2024-01-30T04:26:38;15.97;;;8.60;;
5831;SDS011;50943;51.448;7.646;2024-01-30T04:29:04;18.97;;;7.87;;
5831;SDS011;50943;51.448;7.646;2024-01-30T04:31:31;17.93;;;8.43;;
5831;SDS011;50943;51.448;7.646;2024-01-30T04:33:57;15.77;;;8.60;;
5831;SDS011;50943;51.448;7.646;2024-01-30T04:36:25;15.53;;;8.33;;
5831;SDS011;50943;51.448;7.646;2024-01-30T04:38:52;15.00;;;8.80;;
5831;SDS011;50943;51.448;7.646;2024-01-30T04:41:18;16.73;;;7.47;;
5831;SDS011;50943;51.448;7.646;2024-01-30T04:43:45;15.70;;;8.63;;
5831;SDS011;50943;51.448;7.646;2024-01-30T04:46:11;14.67;;;8.60;;
5831;SDS011;50943;51.448;7.646;2024-01-30T04:48:38;13.00;;;6.53;;
5831;SDS011;50943;51.448;7.646;2024-01-30T04:51:04;13.33;;;7.40;;
5831;SDS011;50943;51.448;7.646;2024-01-30T04:53:32;13.97;;;7.40;;
5831;SDS011;50943;51.448;7.646;2024-01-30T04:55:58;14.37;;;8.07;;
5831;SDS011;50943;51.448;7.646;2024-01-30T04:58:25;17.37;;;7.70;;
5831;SDS011;50943;51.448;7.646;2024-01-30T05:00:51;18.20;;;8.67;;
5831;SDS011;50943;51.448;7.646;2024-01-30T05:03:18;14.00;;;8.37;;
5831;SDS011;50943;51.448;7.646;2024-01-30T05:05:45;14.37;;;8.20;;
5831;SDS011;50943;51.448;7.646;2024-01-30T05:08:11;15.43;;;8.40;;
5831;SDS011;50943;51.448;7.646;2024-01-30T05:10:39;12.70;;;7.80;;
5831;SDS011;50943;51.448;7.646;2024-01-30T05:13:06;12.30;;;8.20;;
5831;SDS011;50943;51.448;7.646;2024-01-30T05:15:32;13.90;;;7.97;;
5831;SDS011;50943;51.448;7.646;2024-01-30T05:17:58;12.67;;;7.40;;
5831;SDS011;50943;51.448;7.646;2024-01-30T05:20:25;11.73;;;6.97;;
5831;SDS011;50943;51.448;7.646;2024-01-30T05:22:53;10.90;;;6.30;;
5831;SDS011;50943;51.448;7.646;2024-01-30T05:25:19;15.87;;;7.83;;
5831;SDS011;50943;51.448;7.646;2024-01-30T05:27:47;14.17;;;7.40;;
5831;SDS011;50943;51.448;7.646;2024-01-30T05:30:14;14.63;;;7.83;;
5831;SDS011;50943;51.448;7.646;2024-01-30T05:32:40;13.80;;;7.60;;
5831;SDS011;50943;51.448;7.646;2024-01-30T05:35:07;12.50;;;6.83;;
5831;SDS011;50943;51.448;7.646;2024-01-30T05:37:33;16.37;;;7.67;;
5831;SDS011;50943;51.448;7.646;2024-01-30T05:40:00;15.47;;;8.50;;
5831;SDS011;50943;51.448;7.646;2024-01-30T05:42:27;17.20;;;7.10;;
5831;SDS011;50943;51.448;7.646;2024-01-30T05:44:55;13.50;;;7.77;;
5831;SDS011;50943;51.448;7.646;2024-01-30T05:47:22;13.93;;;7.17;;
5831;SDS011;50943;51.448;7.646;2024-01-30T05:49:48;14.73;;;7.63;;
5831;SDS011;50943;51.448;7.646;2024-01-30T05:52:15;12.90;;;7.67;;
5831;SDS011;50943;51.448;7.646;2024-01-30T05:54:43;13.83;;;8.00;;
5831;SDS011;50943;51.448;7.646;2024-01-30T05:57:10;14.43;;;8.10;;
5831;SDS011;50943;51.448;7.646;2024-01-30T05:59:36;13.70;;;8.00;;
5831;SDS011;50943;51.448;7.646;2024-01-30T06:02:04;12.03;;;7.37;;
5831;SDS011;50943;51.448;7.646;2024-01-30T06:04:31;13.17;;;8.00;;
5831;SDS011;50943;51.448;7.646;2024-01-30T06:06:57;15.70;;;7.97;;
5831;SDS011;50943;51.448;7.646;2024-01-30T06:09:26;13.77;;;8.07;;
5831;SDS011;50943;51.448;7.646;2024-01-30T06:11:53;13.40;;;7.17;;
5831;SDS011;50943;51.448;7.646;2024-01-30T06:14:20;18.27;;;7.30;;
5831;SDS011;50943;51.448;7.646;2024-01-30T06:16:46;17.20;;;8.40;;
5831;SDS011;50943;51.448;7.646;2024-01-30T06:19:14;13.50;;;7.00;;
5831;SDS011;50943;51.448;7.646;2024-01-30T06:21:41;14.27;;;8.20;;
5831;SDS011;50943;51.448;7.646;2024-01-30T06:24:07;13.67;;;7.60;;
5831;SDS011;50943;51.448;7.646;2024-01-30T06:26:34;16.00;;;7.13;;
5831;SDS011;50943;51.448;7.646;2024-01-30T06:29:00;13.03;;;7.67;;
5831;SDS011;50943;51.448;7.646;2024-01-30T06:31:27;13.57;;;7.13;;
5831;SDS011;50943;51.448;7.646;2024-01-30T06:33:53;15.50;;;6.80;;
5831;SDS011;50943;51.448;7.646;2024-01-30T06:36:21;15.20;;;6.37;;
5831;SDS011;50943;51.448;7.646;2024-01-30T06:38:47;14.13;;;6.63;;
5831;SDS011;50943;51.448;7.646;2024-01-30T06:41:14;11.13;;;6.20;;
5831;SDS011;50943;51.448;7.646;2024-01-30T06:43:40;11.90;;;6.13;;
5831;SDS011;50943;51.448;7.646;2024-01-30T06:46:07;16.20;;;7.33;;
5831;SDS011;50943;51.448;7.646;2024-01-30T06:48:33;13.73;;;7.83;;
5831;SDS011;50943;51.448;7.646;2024-01-30T06:51:00;15.40;;;8.30;;
5831;SDS011;50943;51.448;7.646;2024-01-30T06:53:28;14.93;;;7.60;;
5831;SDS011;50943;51.448;7.646;2024-01-30T06:55:54;15.57;;;7.77;;
5831;SDS011;50943;51.448;7.646;2024-01-30T06:58:21;14.73;;;7.30;;
5831;SDS011;50943;51.448;7.646;2024-01-30T07:00:47;11.60;;;7.20;;
5831;SDS011;50943;51.448;7.646;2024-01-30T07:03:14;11.77;;;6.00;;
5831;SDS011;50943;51.448;7.646;2024-01-30T07:05:40;14.47;;;6.73;;
5831;SDS011;50943;51.448;7.646;2024-01-30T07:08:07;13.70;;;7.13;;
5831;SDS011;50943;51.448;7.646;2024-01-30T07:10:35;14.03;;;6.67;;
5831;SDS011;50943;51.448;7.646;2024-01-30T07:13:02;8.87;;;5.30;;
5831;SDS011;50943;51.448;7.646;2024-01-30T07:15:30;12.00;;;6.10;;
5831;SDS011;50943;51.448;7.646;2024-01-30T07:17:56;11.30;;;5.53;;
5831;SDS011;50943;51.448;7.646;2024-01-30T07:20:24;15.27;;;6.17;;
5831;SDS011;50943;51.448;7.646;2024-01-30T07:22:50;12.90;;;6.13;;
5831;SDS011;50943;51.448;7.646;2024-01-30T07:25:17;12.27;;;6.80;;
5831;SDS011;50943;51.448;7.646;2024-01-30T07:27:44;11.30;;;6.70;;
5831;SDS011;50943;51.448;7.646;2024-01-30T07:30:11;11.00;;;6.10;;
5831;SDS011;50943;51.448;7.646;2024-01-30T07:32:38;16.27;;;8.27;;
5831;SDS011;50943;51.448;7.646;2024-01-30T07:35:04;9.77;;;6.00;;
5831;SDS011;50943;51.448;7.646;2024-01-30T07:37:31;10.00;;;6.00;;
5831;SDS011;50943;51.448;7.646;2024-01-30T07:39:58;10.90;;;6.90;;
5831;SDS011;50943;51.448;7.646;2024-01-30T07:42:24;14.43;;;7.50;;
5831;SDS011;50943;51.448;7.646;2024-01-30T07:44:52;12.13;;;7.27;;
5831;SDS011;50943;51.448;7.646;2024-01-30T07:47:18;11.37;;;7.30;;
5831;SDS011;50943;51.448;7.646;2024-01-30T07:49:45;13.50;;;7.90;;
5831;SDS011;50943;51.448;7.646;2024-01-30T07:52:11;11.57;;;7.37;;
5831;SDS011;50943;51.448;7.646;2024-01-30T07:58:15;17.53;;;8.23;;
5831;SDS011;50943;51.448;7.646;2024-01-30T08:00:43;13.93;;;8.13;;
5831;SDS011;50943;51.448;7.646;2024-01-30T08:03:09;27.37;;;15.20;;
5831;SDS011;50943;51.448;7.646;2024-01-30T08:05:36;22.77;;;12.43;;
5831;SDS011;50943;51.448;7.646;2024-01-30T08:08:04;13.40;;;8.07;;
5831;SDS011;50943;51.448;7.646;2024-01-30T08:10:31;10.73;;;6.27;;
5831;SDS011;50943;51.448;7.646;2024-01-30T08:12:57;16.10;;;7.83;;
5831;SDS011;50943;51.448;7.646;2024-01-30T08:15:24;11.77;;;6.80;;
5831;SDS011;50943;51.448;7.646;2024-01-30T08:17:51;21.33;;;8.17;;
5831;SDS011;50943;51.448;7.646;2024-01-30T08:20:22;11.60;;;6.17;;
5831;SDS011;50943;51.448;7.646;2024-01-30T08:22:49;13.37;;;5.90;;
5831;SDS011;50943;51.448;7.646;2024-01-30T08:25:15;13.67;;;5.33;;
5831;SDS011;50943;51.448;7.646;2024-01-30T08:27:42;12.10;;;5.30;;
5831;SDS011;50943;51.448;7.646;2024-01-30T08:30:09;13.00;;;5.63;;
5831;SDS011;50943;51.448;7.646;2024-01-30T08:32:36;10.27;;;4.97;;
5831;SDS011;50943;51.448;7.646;2024-01-30T08:35:04;6.77;;;4.70;;
5831;SDS011;50943;51.448;7.646;2024-01-30T08:37:31;9.60;;;5.00;;
5831;SDS011;50943;51.448;7.646;2024-01-30T08:39:58;9.50;;;4.97;;
5831;SDS011;50943;51.448;7.646;2024-01-30T08:42:24;8.80;;;5.90;;
5831;SDS011;50943;51.448;7.646;2024-01-30T08:44:51;11.30;;;6.60;;
5831;SDS011;50943;51.448;7.646;2024-01-30T08:47:18;10.90;;;6.90;;
5831;SDS011;50943;51.448;7.646;2024-01-30T08:49:45;16.47;;;8.43;;
5831;SDS011;50943;51.448;7.646;2024-01-30T08:52:13;14.67;;;8.37;;
5831;SDS011;50943;51.448;7.646;2024-01-30T08:54:39;34.13;;;17.73;;
5831;SDS011;50943;51.448;7.646;2024-01-30T08:57:06;14.90;;;8.20;;
5831;SDS011;50943;51.448;7.646;2024-01-30T08:59:32;10.97;;;6.23;;
5831;SDS011;50943;51.448;7.646;2024-01-30T09:01:59;19.53;;;9.20;;
5831;SDS011;50943;51.448;7.646;2024-01-30T09:04:25;16.17;;;8.50;;
5831;SDS011;50943;51.448;7.646;2024-01-30T09:06:52;13.20;;;8.37;;
5831;SDS011;50943;51.448;7.646;2024-01-30T09:09:20;15.37;;;8.30;;
5831;SDS011;50943;51.448;7.646;2024-01-30T09:11:46;14.27;;;7.70;;
5831;SDS011;50943;51.448;7.646;2024-01-30T09:14:13;9.03;;;6.50;;
5831;SDS011;50943;51.448;7.646;2024-01-30T09:16:39;9.10;;;5.23;;
5831;SDS011;50943;51.448;7.646;2024-01-30T09:19:06;9.87;;;5.37;;
5831;SDS011;50943;51.448;7.646;2024-01-30T09:21:32;9.30;;;4.97;;
5831;SDS011;50943;51.448;7.646;2024-01-30T09:24:01;14.37;;;6.23;;
5831;SDS011;50943;51.448;7.646;2024-01-30T09:26:30;9.37;;;6.23;;
5831;SDS011;50943;51.448;7.646;2024-01-30T09:28:56;9.07;;;6.40;;
5831;SDS011;50943;51.448;7.646;2024-01-30T09:31:23;10.97;;;5.83;;
5831;SDS011;50943;51.448;7.646;2024-01-30T09:33:49;29.23;;;14.60;;
5831;SDS011;50943;51.448;7.646;2024-01-30T09:36:18;19.60;;;9.40;;
5831;SDS011;50943;51.448;7.646;2024-01-30T09:38:45;17.10;;;9.20;;
5831;SDS011;50943;51.448;7.646;2024-01-30T09:41:12;13.20;;;7.93;;
5831;SDS011;50943;51.448;7.646;2024-01-30T09:43:40;13.40;;;7.83;;
5831;SDS011;50943;51.448;7.646;2024-01-30T09:46:07;13.70;;;7.80;;
5831;SDS011;50943;51.448;7.646;2024-01-30T09:48:38;13.80;;;6.20;;
5831;SDS011;50943;51.448;7.646;2024-01-30T09:51:05;10.43;;;6.40;;
5831;SDS011;50943;51.448;7.646;2024-01-30T09:53:31;10.33;;;4.60;;
5831;SDS011;50943;51.448;7.646;2024-01-30T09:55:58;9.40;;;5.13;;
5831;SDS011;50943;51.448;7.646;2024-01-30T09:58:24;11.30;;;5.30;;
5831;SDS011;50943;51.448;7.646;2024-01-30T10:00:52;10.53;;;5.00;;
5831;SDS011;50943;51.448;7.646;2024-01-30T10:03:19;12.23;;;5.67;;
5831;SDS011;50943;51.448;7.646;2024-01-30T10:05:46;10.37;;;5.30;;
5831;SDS011;50943;51.448;7.646;2024-01-30T10:08:17;11.80;;;4.70;;
5831;SDS011;50943;51.448;7.646;2024-01-30T10:10:45;10.63;;;4.83;;
5831;SDS011;50943;51.448;7.646;2024-01-30T10:13:11;10.77;;;4.60;;
5831;SDS011;50943;51.448;7.646;2024-01-30T10:15:38;14.27;;;4.67;;
5831;SDS011;50943;51.448;7.646;2024-01-30T10:18:07;10.37;;;5.07;;
5831;SDS011;50943;51.448;7.646;2024-01-30T10:20:35;8.33;;;4.37;;
5831;SDS011;50943;51.448;7.646;2024-01-30T10:23:01;7.30;;;4.37;;
5831;SDS011;50943;51.448;7.646;2024-01-30T10:25:28;8.63;;;4.47;;
5831;SDS011;50943;51.448;7.646;2024-01-30T10:27:55;7.80;;;4.33;;
5831;SDS011;50943;51.448;7.646;2024-01-30T10:30:22;12.90;;;4.13;;
5831;SDS011;50943;51.448;7.646;2024-01-30T10:32:49;7.87;;;3.90;;
5831;SDS011;50943;51.448;7.646;2024-01-30T10:35:17;7.60;;;4.30;;
5831;SDS011;50943;51.448;7.646;2024-01-30T10:37:44;11.17;;;4.23;;
5831;SDS011;50943;51.448;7.646;2024-01-30T10:40:13;8.00;;;4.20;;
5831;SDS011;50943;51.448;7.646;2024-01-30T10:42:42;7.87;;;4.50;;
5831;SDS011;50943;51.448;7.646;2024-01-30T10:45:08;8.03;;;4.83;;
5831;SDS011;50943;51.448;7.646;2024-01-30T10:47:37;7.73;;;4.37;;
5831;SDS011;50943;51.448;7.646;2024-01-30T10:50:07;7.97;;;4.27;;
5831;SDS011;50943;51.448;7.646;2024-01-30T10:52:36;10.20;;;4.63;;
5831;SDS011;50943;51.448;7.646;2024-01-30T10:55:04;6.90;;;4.70;;
5831;SDS011;50943;51.448;7.646;2024-01-30T10:57:32;7.87;;;4.03;;
5831;SDS011;50943;51.448;7.646;2024-01-30T11:00:01;10.07;;;4.80;;
5831;SDS011;50943;51.448;7.646;2024-01-30T11:02:31;8.17;;;4.27;;
5831;SDS011;50943;51.448;7.646;2024-01-30T11:04:58;8.40;;;4.60;;
5831;SDS011;50943;51.448;7.646;2024-01-30T11:07:26;11.43;;;4.40;;
5831;SDS011;50943;51.448;7.646;2024-01-30T11:10:00;7.10;;;4.47;;
5831;SDS011;50943;51.448;7.646;2024-01-30T11:12:28;12.10;;;4.40;;
5831;SDS011;50943;51.448;7.646;2024-01-30T11:15:05;6.60;;;4.13;;
5831;SDS011;50943;51.448;7.646;2024-01-30T11:17:45;7.43;;;4.43;;
5831;SDS011;50943;51.448;7.646;2024-01-30T11:20:16;9.70;;;4.30;;
5831;SDS011;50943;51.448;7.646;2024-01-30T11:22:45;6.87;;;4.23;;
5831;SDS011;50943;51.448;7.646;2024-01-30T11:25:15;8.23;;;4.27;;
5831;SDS011;50943;51.448;7.646;2024-01-30T11:27:42;9.77;;;4.93;;
5831;SDS011;50943;51.448;7.646;2024-01-30T11:30:09;9.23;;;4.23;;
5831;SDS011;50943;51.448;7.646;2024-01-30T11:32:36;10.03;;;6.40;;
5831;SDS011;50943;51.448;7.646;2024-01-30T11:35:03;9.97;;;5.40;;
5831;SDS011;50943;51.448;7.646;2024-01-30T11:37:31;14.20;;;4.87;;
5831;SDS011;50943;51.448;7.646;2024-01-30T11:39:57;8.97;;;4.80;;
5831;SDS011;50943;51.448;7.646;2024-01-30T11:42:26;9.60;;;4.97;;
5831;SDS011;50943;51.448;7.646;2024-01-30T11:44:53;10.10;;;4.40;;
5831;SDS011;50943;51.448;7.646;2024-01-30T11:47:20;13.80;;;4.90;;
5831;SDS011;50943;51.448;7.646;2024-01-30T11:49:46;8.33;;;4.13;;
5831;SDS011;50943;51.448;7.646;2024-01-30T11:52:13;8.03;;;4.37;;
5831;SDS011;50943;51.448;7.646;2024-01-30T11:54:40;10.57;;;4.20;;
5831;SDS011;50943;51.448;7.646;2024-01-30T11:57:06;7.73;;;4.67;;
5831;SDS011;50943;51.448;7.646;2024-01-30T11:59:34;7.77;;;4.87;;
5831;SDS011;50943;51.448;7.646;2024-01-30T12:02:01;12.33;;;5.47;;
5831;SDS011;50943;51.448;7.646;2024-01-30T12:04:28;12.90;;;4.80;;
5831;SDS011;50943;51.448;7.646;2024-01-30T12:06:55;8.27;;;4.50;;
5831;SDS011;50943;51.448;7.646;2024-01-30T12:09:22;10.10;;;4.80;;
5831;SDS011;50943;51.448;7.646;2024-01-30T12:11:48;13.40;;;7.43;;
5831;SDS011;50943;51.448;7.646;2024-01-30T12:14:16;16.20;;;5.30;;
5831;SDS011;50943;51.448;7.646;2024-01-30T12:16:47;8.30;;;4.40;;
5831;SDS011;50943;51.448;7.646;2024-01-30T12:19:20;8.43;;;4.83;;
5831;SDS011;50943;51.448;7.646;2024-01-30T12:21:47;8.00;;;4.50;;
5831;SDS011;50943;51.448;7.646;2024-01-30T12:24:14;12.50;;;4.83;;
5831;SDS011;50943;51.448;7.646;2024-01-30T12:26:41;11.67;;;5.83;;
5831;SDS011;50943;51.448;7.646;2024-01-30T12:29:07;15.33;;;6.40;;
5831;SDS011;50943;51.448;7.646;2024-01-30T12:31:34;10.13;;;4.57;;
5831;SDS011;50943;51.448;7.646;2024-01-30T12:34:01;11.43;;;5.60;;
5831;SDS011;50943;51.448;7.646;2024-01-30T12:36:28;11.33;;;5.50;;
5831;SDS011;50943;51.448;7.646;2024-01-30T12:38:56;12.63;;;5.20;;
5831;SDS011;50943;51.448;7.646;2024-01-30T12:41:23;9.23;;;4.87;;
5831;SDS011;50943;51.448;7.646;2024-01-30T12:43:53;8.23;;;4.97;;
5831;SDS011;50943;51.448;7.646;2024-01-30T12:46:19;15.67;;;5.20;;
5831;SDS011;50943;51.448;7.646;2024-01-30T12:48:46;14.63;;;5.43;;
5831;SDS011;50943;51.448;7.646;2024-01-30T12:51:14;15.93;;;5.57;;
5831;SDS011;50943;51.448;7.646;2024-01-30T12:53:40;17.13;;;5.33;;
5831;SDS011;50943;51.448;7.646;2024-01-30T12:56:08;13.73;;;6.10;;
5831;SDS011;50943;51.448;7.646;2024-01-30T12:58:34;16.00;;;5.20;;
5831;SDS011;50943;51.448;7.646;2024-01-30T13:01:01;16.63;;;5.63;;
5831;SDS011;50943;51.448;7.646;2024-01-30T13:03:27;14.13;;;5.23;;
5831;SDS011;50943;51.448;7.646;2024-01-30T13:05:54;10.10;;;5.50;;
5831;SDS011;50943;51.448;7.646;2024-01-30T13:08:22;12.47;;;5.60;;
5831;SDS011;50943;51.448;7.646;2024-01-30T13:10:49;12.90;;;5.27;;
5831;SDS011;50943;51.448;7.646;2024-01-30T13:13:15;12.83;;;5.90;;
5831;SDS011;50943;51.448;7.646;2024-01-30T13:15:42;12.43;;;5.60;;
5831;SDS011;50943;51.448;7.646;2024-01-30T13:18:08;13.80;;;5.43;;
5831;SDS011;50943;51.448;7.646;2024-01-30T13:20:35;14.27;;;5.70;;
5831;SDS011;50943;51.448;7.646;2024-01-30T13:23:01;13.27;;;5.40;;
5831;SDS011;50943;51.448;7.646;2024-01-30T13:25:29;13.70;;;5.53;;
5831;SDS011;50943;51.448;7.646;2024-01-30T13:27:56;10.50;;;5.60;;
5831;SDS011;50943;51.448;7.646;2024-01-30T13:30:23;12.20;;;5.93;;
5831;SDS011;50943;51.448;7.646;2024-01-30T13:32:49;9.73;;;5.30;;
5831;SDS011;50943;51.448;7.646;2024-01-30T13:35:16;10.53;;;5.40;;
5831;SDS011;50943;51.448;7.646;2024-01-30T13:37:43;11.10;;;5.27;;
5831;SDS011;50943;51.448;7.646;2024-01-30T13:40:09;12.73;;;5.30;;
5831;SDS011;50943;51.448;7.646;2024-01-30T13:42:39;11.83;;;6.10;;
5831;SDS011;50943;51.448;7.646;2024-01-30T13:45:05;13.53;;;5.47;;
5831;SDS011;50943;51.448;7.646;2024-01-30T13:47:34;14.00;;;5.70;;
5831;SDS011;50943;51.448;7.646;2024-01-30T13:50:01;12.47;;;5.57;;
5831;SDS011;50943;51.448;7.646;2024-01-30T13:52:28;17.50;;;6.47;;
5831;SDS011;50943;51.448;7.646;2024-01-30T13:54:54;11.27;;;5.80;;
5831;SDS011;50943;51.448;7.646;2024-01-30T13:57:21;14.23;;;5.80;;
5831;SDS011;50943;51.448;7.646;2024-01-30T13:59:48;15.73;;;7.33;;
5831;SDS011;50943;51.448;7.646;2024-01-30T14:02:15;21.60;;;8.23;;
5831;SDS011;50943;51.448;7.646;2024-01-30T14:04:41;17.07;;;6.50;;
5831;SDS011;50943;51.448;7.646;2024-01-30T14:07:08;11.87;;;6.50;;
5831;SDS011;50943;51.448;7.646;2024-01-30T14:09:35;10.03;;;5.90;;
5831;SDS011;50943;51.448;7.646;2024-01-30T14:12:01;19.47;;;7.17;;
5831;SDS011;50943;51.448;7.646;2024-01-30T14:14:28;14.30;;;6.37;;
5831;SDS011;50943;51.448;7.646;2024-01-30T14:16:56;13.63;;;6.30;;
5831;SDS011;50943;51.448;7.646;2024-01-30T14:19:22;14.07;;;6.53;;
5831;SDS011;50943;51.448;7.646;2024-01-30T14:21:48;9.70;;;5.60;;
5831;SDS011;50943;51.448;7.646;2024-01-30T14:24:15;13.73;;;6.20;;
5831;SDS011;50943;51.448;7.646;2024-01-30T14:26:41;13.27;;;6.47;;
5831;SDS011;50943;51.448;7.646;2024-01-30T14:29:09;16.73;;;7.27;;
5831;SDS011;50943;51.448;7.646;2024-01-30T14:31:35;13.47;;;6.53;;
5831;SDS011;50943;51.448;7.646;2024-01-30T14:34:03;22.30;;;7.70;;
5831;SDS011;50943;51.448;7.646;2024-01-30T14:36:30;11.80;;;7.10;;
5831;SDS011;50943;51.448;7.646;2024-01-30T14:38:56;15.10;;;7.43;;
5831;SDS011;50943;51.448;7.646;2024-01-30T14:41:23;12.30;;;7.00;;
5831;SDS011;50943;51.448;7.646;2024-01-30T14:43:49;11.70;;;7.27;;
5831;SDS011;50943;51.448;7.646;2024-01-30T14:46:16;15.97;;;8.27;;
5831;SDS011;50943;51.448;7.646;2024-01-30T14:48:42;16.20;;;6.70;;
5831;SDS011;50943;51.448;7.646;2024-01-30T14:51:10;12.87;;;6.90;;
5831;SDS011;50943;51.448;7.646;2024-01-30T14:53:37;13.20;;;7.67;;
5831;SDS011;50943;51.448;7.646;2024-01-30T14:56:04;13.90;;;6.90;;